sensor_id;sensor_type;location;lat;lon;timestamp;pressure;altitude;pressure_sealevel;temperature;humidity
24302;BME280;12421;49.732;20.078;2022-08-19T00:01:40;96443.78;;;18.48;79.90
24302;BME280;12421;49.732;20.078;2022-08-19T00:11:44;96456.19;;;18.31;79.64
24302;BME280;12421;49.732;20.078;2022-08-19T00:21:47;96453.91;;;18.23;79.96
24302;BME280;12421;49.732;20.078;2022-08-19T00:31:50;96469.09;;;18.21;79.78
24302;BME280;12421;49.732;20.078;2022-08-19T00:41:55;96464.52;;;18.15;79.67
24302;BME280;12421;49.732;20.078;2022-08-19T00:52:01;96465.47;;;17.95;79.54
24302;BME280;12421;49.732;20.078;2022-08-19T01:02:06;96464.45;;;17.60;80.00
24302;BME280;12421;49.732;20.078;2022-08-19T01:12:10;96455.52;;;17.61;81.12
24302;BME280;12421;49.732;20.078;2022-08-19T01:32:32;96441.77;;;17.52;80.50
24302;BME280;12421;49.732;20.078;2022-08-19T01:42:34;96428.16;;;17.38;80.72
24302;BME280;12421;49.732;20.078;2022-08-19T01:52:37;96426.22;;;17.23;80.79
24302;BME280;12421;49.732;20.078;2022-08-19T02:02:41;96440.26;;;17.16;80.86
24302;BME280;12421;49.732;20.078;2022-08-19T02:12:44;96436.86;;;17.03;80.67
24302;BME280;12421;49.732;20.078;2022-08-19T02:22:46;96426.11;;;16.86;81.07
24302;BME280;12421;49.732;20.078;2022-08-19T02:32:48;96419.04;;;16.85;81.00
24302;BME280;12421;49.732;20.078;2022-08-19T02:42:50;96408.28;;;16.68;81.06
24302;BME280;12421;49.732;20.078;2022-08-19T02:52:52;96414.50;;;16.46;82.23
24302;BME280;12421;49.732;20.078;2022-08-19T03:02:55;96419.75;;;16.48;82.70
24302;BME280;12421;49.732;20.078;2022-08-19T03:12:57;96419.92;;;16.43;82.31
24302;BME280;12421;49.732;20.078;2022-08-19T03:22:59;96446.34;;;16.48;82.37
24302;BME280;12421;49.732;20.078;2022-08-19T03:33:01;96460.38;;;16.40;82.23
24302;BME280;12421;49.732;20.078;2022-08-19T03:43:03;96447.47;;;16.41;82.30
24302;BME280;12421;49.732;20.078;2022-08-19T03:53:07;96447.80;;;16.33;83.28
24302;BME280;12421;49.732;20.078;2022-08-19T04:03:09;96459.11;;;16.38;82.95
24302;BME280;12421;49.732;20.078;2022-08-19T04:13:12;96448.66;;;16.55;82.75
24302;BME280;12421;49.732;20.078;2022-08-19T04:23:14;96443.48;;;16.52;82.92
24302;BME280;12421;49.732;20.078;2022-08-19T04:33:19;96465.56;;;16.75;83.91
24302;BME280;12421;49.732;20.078;2022-08-19T04:43:26;96438.73;;;16.81;83.55
24302;BME280;12421;49.732;20.078;2022-08-19T04:53:30;96442.85;;;17.08;85.83
24302;BME280;12421;49.732;20.078;2022-08-19T05:03:33;96450.50;;;17.45;86.11
24302;BME280;12421;49.732;20.078;2022-08-19T05:13:47;96456.76;;;18.10;85.73
24302;BME280;12421;49.732;20.078;2022-08-19T05:23:57;96470.73;;;18.61;85.05
24302;BME280;12421;49.732;20.078;2022-08-19T05:34:24;96482.69;;;19.13;84.96
24302;BME280;12421;49.732;20.078;2022-08-19T05:56:14;96504.55;;;20.21;82.94
24302;BME280;12421;49.732;20.078;2022-08-19T06:06:18;96486.46;;;20.87;80.29
24302;BME280;12421;49.732;20.078;2022-08-19T06:16:21;96483.41;;;21.31;79.09
24302;BME280;12421;49.732;20.078;2022-08-19T06:26:24;96480.34;;;22.09;80.65
24302;BME280;12421;49.732;20.078;2022-08-19T06:36:29;96485.64;;;22.98;79.60
24302;BME280;12421;49.732;20.078;2022-08-19T06:46:35;96487.46;;;24.01;77.23
24302;BME280;12421;49.732;20.078;2022-08-19T06:56:38;96491.64;;;25.21;73.69
24302;BME280;12421;49.732;20.078;2022-08-19T07:06:40;96490.84;;;26.45;70.21
24302;BME280;12421;49.732;20.078;2022-08-19T07:16:42;96525.39;;;27.60;67.78
24302;BME280;12421;49.732;20.078;2022-08-19T07:26:44;96529.80;;;28.54;64.09
24302;BME280;12421;49.732;20.078;2022-08-19T07:36:48;96522.71;;;29.27;61.42
24302;BME280;12421;49.732;20.078;2022-08-19T07:46:54;96520.20;;;29.92;60.44
24302;BME280;12421;49.732;20.078;2022-08-19T07:56:57;96524.85;;;30.61;60.24
24302;BME280;12421;49.732;20.078;2022-08-19T08:06:59;96519.42;;;31.25;58.76
24302;BME280;12421;49.732;20.078;2022-08-19T08:17:24;96531.36;;;31.28;57.40
24302;BME280;12421;49.732;20.078;2022-08-19T08:27:27;96537.41;;;31.08;57.99
24302;BME280;12421;49.732;20.078;2022-08-19T08:37:43;96544.88;;;30.92;58.67
24302;BME280;12421;49.732;20.078;2022-08-19T08:47:58;96538.47;;;30.84;58.82
24302;BME280;12421;49.732;20.078;2022-08-19T08:58:41;96522.86;;;31.13;58.19
24302;BME280;12421;49.732;20.078;2022-08-19T09:18:51;96518.88;;;31.48;57.74
24302;BME280;12421;49.732;20.078;2022-08-19T09:29:01;96518.28;;;31.58;57.21
24302;BME280;12421;49.732;20.078;2022-08-19T09:39:17;96502.08;;;31.70;56.41
24302;BME280;12421;49.732;20.078;2022-08-19T09:49:20;96500.15;;;31.84;56.49
24302;BME280;12421;49.732;20.078;2022-08-19T09:59:26;96493.97;;;31.92;56.88
24302;BME280;12421;49.732;20.078;2022-08-19T10:09:29;96487.68;;;32.17;56.72
24302;BME280;12421;49.732;20.078;2022-08-19T10:19:31;96478.08;;;32.30;56.97
24302;BME280;12421;49.732;20.078;2022-08-19T10:51:03;96448.46;;;32.91;54.92
24302;BME280;12421;49.732;20.078;2022-08-19T11:01:26;96462.13;;;32.99;51.79
24302;BME280;12421;49.732;20.078;2022-08-19T11:11:28;96461.98;;;33.12;50.35
24302;BME280;12421;49.732;20.078;2022-08-19T11:21:33;96448.86;;;33.16;49.40
24302;BME280;12421;49.732;20.078;2022-08-19T11:31:37;96439.00;;;33.23;47.95
24302;BME280;12421;49.732;20.078;2022-08-19T11:41:41;96435.73;;;33.19;47.56
24302;BME280;12421;49.732;20.078;2022-08-19T11:51:43;96425.01;;;33.26;47.12
24302;BME280;12421;49.732;20.078;2022-08-19T12:01:45;96425.01;;;33.26;48.09
24302;BME280;12421;49.732;20.078;2022-08-19T12:11:48;96426.19;;;33.19;46.07
24302;BME280;12421;49.732;20.078;2022-08-19T12:21:58;96431.48;;;33.17;45.24
24302;BME280;12421;49.732;20.078;2022-08-19T12:43:42;96417.50;;;33.20;46.62
24302;BME280;12421;49.732;20.078;2022-08-19T12:53:50;96395.48;;;33.21;46.13
24302;BME280;12421;49.732;20.078;2022-08-19T13:03:52;96392.59;;;33.31;47.36
24302;BME280;12421;49.732;20.078;2022-08-19T13:13:54;96407.28;;;33.30;45.10
24302;BME280;12421;49.732;20.078;2022-08-19T13:23:57;96392.58;;;33.15;45.00
24302;BME280;12421;49.732;20.078;2022-08-19T13:33:59;96386.11;;;33.20;44.40
24302;BME280;12421;49.732;20.078;2022-08-19T13:44:03;96382.00;;;33.12;43.12
24302;BME280;12421;49.732;20.078;2022-08-19T13:54:28;96369.88;;;33.14;42.99
24302;BME280;12421;49.732;20.078;2022-08-19T14:04:53;96367.85;;;33.24;42.84
24302;BME280;12421;49.732;20.078;2022-08-19T14:14:55;96364.26;;;33.12;42.79
24302;BME280;12421;49.732;20.078;2022-08-19T14:25:04;96363.91;;;33.07;42.12
24302;BME280;12421;49.732;20.078;2022-08-19T14:35:07;96365.23;;;32.95;42.70
24302;BME280;12421;49.732;20.078;2022-08-19T14:45:10;96358.64;;;32.30;44.94
24302;BME280;12421;49.732;20.078;2022-08-19T14:55:15;96362.48;;;31.47;46.70
24302;BME280;12421;49.732;20.078;2022-08-19T15:05:18;96366.13;;;30.58;48.14
24302;BME280;12421;49.732;20.078;2022-08-19T15:15:21;96341.13;;;29.91;50.49
24302;BME280;12421;49.732;20.078;2022-08-19T15:25:47;96325.01;;;29.47;53.80
24302;BME280;12421;49.732;20.078;2022-08-19T15:35:52;96326.11;;;29.12;53.53
24302;BME280;12421;49.732;20.078;2022-08-19T15:45:55;96335.15;;;28.78;55.22
24302;BME280;12421;49.732;20.078;2022-08-19T15:55:57;96323.04;;;28.48;56.48
24302;BME280;12421;49.732;20.078;2022-08-19T16:06:00;96308.80;;;28.31;58.89
24302;BME280;12421;49.732;20.078;2022-08-19T16:16:23;96317.17;;;28.09;59.87
24302;BME280;12421;49.732;20.078;2022-08-19T16:26:29;96317.80;;;27.92;62.21
24302;BME280;12421;49.732;20.078;2022-08-19T16:36:45;96305.48;;;27.63;62.01
24302;BME280;12421;49.732;20.078;2022-08-19T16:47:07;96301.79;;;27.29;63.90
24302;BME280;12421;49.732;20.078;2022-08-19T17:20:27;96330.85;;;26.52;66.16
24302;BME280;12421;49.732;20.078;2022-08-19T17:31:37;96328.09;;;26.37;66.53
24302;BME280;12421;49.732;20.078;2022-08-19T18:14:34;96373.66;;;25.30;68.61
24302;BME280;12421;49.732;20.078;2022-08-19T18:24:40;96374.81;;;25.04;69.77
24302;BME280;12421;49.732;20.078;2022-08-19T18:34:43;96378.16;;;24.84;70.44
24302;BME280;12421;49.732;20.078;2022-08-19T18:44:48;96366.91;;;24.60;71.27
24302;BME280;12421;49.732;20.078;2022-08-19T19:06:01;96403.27;;;24.42;71.80
24302;BME280;12421;49.732;20.078;2022-08-19T19:16:07;96448.70;;;24.16;72.61
24302;BME280;12421;49.732;20.078;2022-08-19T19:26:17;96498.00;;;24.04;72.94
24302;BME280;12421;49.732;20.078;2022-08-19T19:46:52;96521.90;;;23.77;72.78
24302;BME280;12421;49.732;20.078;2022-08-19T19:56:56;96530.26;;;23.79;72.83
24302;BME280;12421;49.732;20.078;2022-08-19T20:06:58;96546.17;;;23.82;70.52
24302;BME280;12421;49.732;20.078;2022-08-19T20:17:01;96546.39;;;23.79;68.86
24302;BME280;12421;49.732;20.078;2022-08-19T20:27:04;96571.42;;;23.67;68.44
24302;BME280;12421;49.732;20.078;2022-08-19T20:58:29;96592.17;;;23.26;69.01
24302;BME280;12421;49.732;20.078;2022-08-19T21:08:32;96568.45;;;22.85;70.18
24302;BME280;12421;49.732;20.078;2022-08-19T21:18:34;96564.86;;;22.58;71.25
24302;BME280;12421;49.732;20.078;2022-08-19T21:28:36;96568.20;;;22.40;72.04
24302;BME280;12421;49.732;20.078;2022-08-19T21:38:38;96564.66;;;22.26;72.60
24302;BME280;12421;49.732;20.078;2022-08-19T21:48:42;96557.94;;;22.12;73.18
24302;BME280;12421;49.732;20.078;2022-08-19T21:58:44;96563.94;;;21.87;73.47
24302;BME280;12421;49.732;20.078;2022-08-19T22:08:54;96557.66;;;21.65;73.94
24302;BME280;12421;49.732;20.078;2022-08-19T22:18:56;96567.98;;;21.57;74.00
24302;BME280;12421;49.732;20.078;2022-08-19T22:28:58;96561.31;;;21.42;74.46
24302;BME280;12421;49.732;20.078;2022-08-19T22:39:01;96568.01;;;21.12;75.37
24302;BME280;12421;49.732;20.078;2022-08-19T22:49:04;96556.28;;;20.75;76.16
24302;BME280;12421;49.732;20.078;2022-08-19T22:59:06;96565.57;;;20.61;76.77
24302;BME280;12421;49.732;20.078;2022-08-19T23:20:43;96547.95;;;20.41;77.02
24302;BME280;12421;49.732;20.078;2022-08-19T23:30:46;96548.36;;;20.42;77.24
24302;BME280;12421;49.732;20.078;2022-08-19T23:40:51;96551.31;;;20.29;77.16
24302;BME280;12421;49.732;20.078;2022-08-19T23:50:54;96544.66;;;20.21;77.29
